sensor_id;sensor_type;location;lat;lon;timestamp;P1;durP1;ratioP1;P2;durP2;ratioP2
38208;SDS011;24016;52.102;11.584;2023-03-23T00:01:17;3.50;;;1.60;;
38208;SDS011;24016;52.102;11.584;2023-03-23T00:03:45;2.90;;;1.60;;
38208;SDS011;24016;52.102;11.584;2023-03-23T00:06:12;2.95;;;1.45;;
38208;SDS011;24016;52.102;11.584;2023-03-23T00:08:41;2.97;;;1.50;;
38208;SDS011;24016;52.102;11.584;2023-03-23T00:11:12;1.75;;;1.25;;
38208;SDS011;24016;52.102;11.584;2023-03-23T00:13:46;2.92;;;1.20;;
38208;SDS011;24016;52.102;11.584;2023-03-23T00:16:16;3.65;;;1.35;;
38208;SDS011;24016;52.102;11.584;2023-03-23T00:18:55;2.42;;;1.40;;
38208;SDS011;24016;52.102;11.584;2023-03-23T00:21:26;2.60;;;1.33;;
38208;SDS011;24016;52.102;11.584;2023-03-23T00:24:05;2.85;;;1.27;;
38208;SDS011;24016;52.102;11.584;2023-03-23T00:26:33;2.72;;;1.48;;
38208;SDS011;24016;52.102;11.584;2023-03-23T00:29:01;2.05;;;1.20;;
38208;SDS011;24016;52.102;11.584;2023-03-23T00:31:29;3.35;;;1.20;;
38208;SDS011;24016;52.102;11.584;2023-03-23T00:34:00;3.65;;;1.40;;
38208;SDS011;24016;52.102;11.584;2023-03-23T00:36:28;3.67;;;1.33;;
38208;SDS011;24016;52.102;11.584;2023-03-23T00:38:55;2.28;;;1.10;;
38208;SDS011;24016;52.102;11.584;2023-03-23T00:41:26;2.67;;;1.10;;
38208;SDS011;24016;52.102;11.584;2023-03-23T00:43:53;2.53;;;1.40;;
38208;SDS011;24016;52.102;11.584;2023-03-23T00:46:19;4.30;;;1.30;;
38208;SDS011;24016;52.102;11.584;2023-03-23T00:48:45;1.23;;;0.90;;
38208;SDS011;24016;52.102;11.584;2023-03-23T00:51:12;2.67;;;1.20;;
38208;SDS011;24016;52.102;11.584;2023-03-23T00:53:38;1.48;;;1.17;;
38208;SDS011;24016;52.102;11.584;2023-03-23T00:56:04;4.15;;;1.33;;
38208;SDS011;24016;52.102;11.584;2023-03-23T00:58:31;1.98;;;1.13;;
38208;SDS011;24016;52.102;11.584;2023-03-23T01:00:56;3.47;;;1.45;;
38208;SDS011;24016;52.102;11.584;2023-03-23T01:03:22;1.83;;;1.10;;
38208;SDS011;24016;52.102;11.584;2023-03-23T01:05:50;3.20;;;1.10;;
38208;SDS011;24016;52.102;11.584;2023-03-23T01:08:18;4.63;;;1.40;;
38208;SDS011;24016;52.102;11.584;2023-03-23T01:10:44;4.97;;;1.50;;
38208;SDS011;24016;52.102;11.584;2023-03-23T01:13:10;2.25;;;1.20;;
38208;SDS011;24016;52.102;11.584;2023-03-23T01:15:36;3.10;;;1.10;;
38208;SDS011;24016;52.102;11.584;2023-03-23T01:18:02;1.83;;;1.20;;
38208;SDS011;24016;52.102;11.584;2023-03-23T01:20:28;3.10;;;1.45;;
38208;SDS011;24016;52.102;11.584;2023-03-23T01:22:59;3.47;;;1.50;;
38208;SDS011;24016;52.102;11.584;2023-03-23T01:25:31;2.28;;;1.13;;
38208;SDS011;24016;52.102;11.584;2023-03-23T01:27:59;2.30;;;1.30;;
38208;SDS011;24016;52.102;11.584;2023-03-23T01:33:06;3.33;;;1.20;;
38208;SDS011;24016;52.102;11.584;2023-03-23T01:35:31;4.75;;;1.30;;
38208;SDS011;24016;52.102;11.584;2023-03-23T01:37:57;3.10;;;1.30;;
38208;SDS011;24016;52.102;11.584;2023-03-23T01:40:22;2.30;;;1.20;;
38208;SDS011;24016;52.102;11.584;2023-03-23T01:42:48;12.55;;;1.58;;
38208;SDS011;24016;52.102;11.584;2023-03-23T01:48:36;5.03;;;1.35;;
38208;SDS011;24016;52.102;11.584;2023-03-23T01:53:24;1.95;;;1.23;;
38208;SDS011;24016;52.102;11.584;2023-03-23T01:55:54;4.50;;;1.30;;
38208;SDS011;24016;52.102;11.584;2023-03-23T01:58:23;1.33;;;1.10;;
38208;SDS011;24016;52.102;11.584;2023-03-23T02:00:52;3.63;;;1.30;;
38208;SDS011;24016;52.102;11.584;2023-03-23T02:03:20;2.70;;;1.27;;
38208;SDS011;24016;52.102;11.584;2023-03-23T02:05:48;2.45;;;1.38;;
38208;SDS011;24016;52.102;11.584;2023-03-23T02:08:15;2.72;;;1.50;;
38208;SDS011;24016;52.102;11.584;2023-03-23T02:10:43;2.65;;;1.33;;
38208;SDS011;24016;52.102;11.584;2023-03-23T02:13:09;1.90;;;1.42;;
38208;SDS011;24016;52.102;11.584;2023-03-23T02:15:41;3.63;;;1.10;;
38208;SDS011;24016;52.102;11.584;2023-03-23T02:21:28;1.63;;;1.10;;
38208;SDS011;24016;52.102;11.584;2023-03-23T02:24:23;2.03;;;1.38;;
38208;SDS011;24016;52.102;11.584;2023-03-23T02:27:19;3.90;;;1.27;;
38208;SDS011;24016;52.102;11.584;2023-03-23T02:36:02;2.92;;;1.42;;
38208;SDS011;24016;52.102;11.584;2023-03-23T02:38:35;3.22;;;1.60;;
38208;SDS011;24016;52.102;11.584;2023-03-23T02:41:21;2.47;;;1.40;;
38208;SDS011;24016;52.102;11.584;2023-03-23T02:43:50;3.55;;;1.83;;
38208;SDS011;24016;52.102;11.584;2023-03-23T02:46:17;2.47;;;1.38;;
38208;SDS011;24016;52.102;11.584;2023-03-23T02:48:45;4.30;;;1.60;;
38208;SDS011;24016;52.102;11.584;2023-03-23T02:51:13;3.53;;;1.90;;
38208;SDS011;24016;52.102;11.584;2023-03-23T02:53:41;2.90;;;1.60;;
38208;SDS011;24016;52.102;11.584;2023-03-23T02:56:08;2.78;;;1.60;;
38208;SDS011;24016;52.102;11.584;2023-03-23T02:58:35;3.90;;;1.65;;
38208;SDS011;24016;52.102;11.584;2023-03-23T03:01:45;1.90;;;1.45;;
38208;SDS011;24016;52.102;11.584;2023-03-23T03:04:11;4.45;;;1.45;;
38208;SDS011;24016;52.102;11.584;2023-03-23T03:07:02;4.35;;;1.92;;
38208;SDS011;24016;52.102;11.584;2023-03-23T03:09:48;3.60;;;1.73;;
38208;SDS011;24016;52.102;11.584;2023-03-23T03:18:03;2.72;;;1.52;;
38208;SDS011;24016;52.102;11.584;2023-03-23T03:20:35;3.15;;;1.50;;
38208;SDS011;24016;52.102;11.584;2023-03-23T03:23:05;4.25;;;1.80;;
38208;SDS011;24016;52.102;11.584;2023-03-23T03:25:32;5.72;;;1.83;;
38208;SDS011;24016;52.102;11.584;2023-03-23T03:27:58;4.07;;;1.42;;
38208;SDS011;24016;52.102;11.584;2023-03-23T03:30:26;2.80;;;1.40;;
38208;SDS011;24016;52.102;11.584;2023-03-23T03:32:56;3.45;;;1.50;;
38208;SDS011;24016;52.102;11.584;2023-03-23T03:35:25;2.90;;;1.42;;
38208;SDS011;24016;52.102;11.584;2023-03-23T03:37:51;2.08;;;1.25;;
38208;SDS011;24016;52.102;11.584;2023-03-23T03:40:18;3.17;;;1.35;;
38208;SDS011;24016;52.102;11.584;2023-03-23T03:42:45;2.22;;;1.27;;
38208;SDS011;24016;52.102;11.584;2023-03-23T03:45:13;3.30;;;1.10;;
38208;SDS011;24016;52.102;11.584;2023-03-23T03:47:42;4.07;;;1.53;;
38208;SDS011;24016;52.102;11.584;2023-03-23T03:50:08;3.97;;;1.63;;
38208;SDS011;24016;52.102;11.584;2023-03-23T03:52:34;2.97;;;1.20;;
38208;SDS011;24016;52.102;11.584;2023-03-23T03:55:00;3.88;;;1.50;;
38208;SDS011;24016;52.102;11.584;2023-03-23T03:57:26;2.85;;;1.23;;
38208;SDS011;24016;52.102;11.584;2023-03-23T03:59:52;3.78;;;1.52;;
38208;SDS011;24016;52.102;11.584;2023-03-23T04:02:17;3.30;;;1.38;;
38208;SDS011;24016;52.102;11.584;2023-03-23T04:04:48;3.75;;;1.50;;
38208;SDS011;24016;52.102;11.584;2023-03-23T04:07:16;3.67;;;1.90;;
38208;SDS011;24016;52.102;11.584;2023-03-23T04:09:43;3.47;;;1.58;;
38208;SDS011;24016;52.102;11.584;2023-03-23T04:12:11;2.55;;;1.50;;
38208;SDS011;24016;52.102;11.584;2023-03-23T04:14:37;3.17;;;1.42;;
38208;SDS011;24016;52.102;11.584;2023-03-23T04:17:03;2.70;;;1.45;;
38208;SDS011;24016;52.102;11.584;2023-03-23T04:19:28;3.83;;;1.60;;
38208;SDS011;24016;52.102;11.584;2023-03-23T04:21:57;2.88;;;1.52;;
38208;SDS011;24016;52.102;11.584;2023-03-23T04:24:23;3.25;;;1.52;;
38208;SDS011;24016;52.102;11.584;2023-03-23T04:26:49;3.38;;;1.70;;
38208;SDS011;24016;52.102;11.584;2023-03-23T04:29:17;4.88;;;2.00;;
38208;SDS011;24016;52.102;11.584;2023-03-23T04:31:44;4.25;;;2.00;;
38208;SDS011;24016;52.102;11.584;2023-03-23T04:34:10;5.88;;;2.45;;
38208;SDS011;24016;52.102;11.584;2023-03-23T04:36:38;2.50;;;1.85;;
38208;SDS011;24016;52.102;11.584;2023-03-23T04:39:04;8.75;;;2.67;;
38208;SDS011;24016;52.102;11.584;2023-03-23T04:41:31;4.95;;;2.30;;
38208;SDS011;24016;52.102;11.584;2023-03-23T04:43:57;4.28;;;2.22;;
38208;SDS011;24016;52.102;11.584;2023-03-23T04:46:27;6.72;;;2.92;;
38208;SDS011;24016;52.102;11.584;2023-03-23T04:48:53;8.30;;;2.53;;
38208;SDS011;24016;52.102;11.584;2023-03-23T04:51:19;8.45;;;2.72;;
38208;SDS011;24016;52.102;11.584;2023-03-23T04:53:45;5.53;;;2.50;;
38208;SDS011;24016;52.102;11.584;2023-03-23T04:56:10;6.90;;;2.80;;
38208;SDS011;24016;52.102;11.584;2023-03-23T04:58:38;6.03;;;2.67;;
38208;SDS011;24016;52.102;11.584;2023-03-23T05:01:04;6.03;;;3.08;;
38208;SDS011;24016;52.102;11.584;2023-03-23T05:03:30;8.05;;;3.00;;
38208;SDS011;24016;52.102;11.584;2023-03-23T05:05:55;5.78;;;2.55;;
38208;SDS011;24016;52.102;11.584;2023-03-23T05:08:22;5.80;;;2.75;;
38208;SDS011;24016;52.102;11.584;2023-03-23T05:10:55;7.25;;;2.95;;
38208;SDS011;24016;52.102;11.584;2023-03-23T05:13:22;6.00;;;2.50;;
38208;SDS011;24016;52.102;11.584;2023-03-23T05:15:48;8.05;;;3.15;;
38208;SDS011;24016;52.102;11.584;2023-03-23T05:18:14;5.57;;;3.17;;
38208;SDS011;24016;52.102;11.584;2023-03-23T05:20:41;3.80;;;2.25;;
38208;SDS011;24016;52.102;11.584;2023-03-23T05:23:11;5.78;;;2.80;;
38208;SDS011;24016;52.102;11.584;2023-03-23T05:25:37;6.35;;;2.85;;
38208;SDS011;24016;52.102;11.584;2023-03-23T05:28:07;4.47;;;3.03;;
38208;SDS011;24016;52.102;11.584;2023-03-23T05:30:35;5.25;;;2.72;;
38208;SDS011;24016;52.102;11.584;2023-03-23T05:33:01;5.85;;;2.50;;
38208;SDS011;24016;52.102;11.584;2023-03-23T05:35:28;6.15;;;2.83;;
38208;SDS011;24016;52.102;11.584;2023-03-23T05:37:54;5.60;;;2.60;;
38208;SDS011;24016;52.102;11.584;2023-03-23T05:40:20;7.15;;;2.75;;
38208;SDS011;24016;52.102;11.584;2023-03-23T05:42:47;8.45;;;3.40;;
38208;SDS011;24016;52.102;11.584;2023-03-23T05:45:13;4.82;;;2.80;;
38208;SDS011;24016;52.102;11.584;2023-03-23T05:47:39;6.82;;;2.78;;
38208;SDS011;24016;52.102;11.584;2023-03-23T05:50:06;6.20;;;3.08;;
38208;SDS011;24016;52.102;11.584;2023-03-23T05:52:33;4.05;;;3.08;;
38208;SDS011;24016;52.102;11.584;2023-03-23T05:55:00;7.57;;;3.47;;
38208;SDS011;24016;52.102;11.584;2023-03-23T05:57:28;6.63;;;3.50;;
38208;SDS011;24016;52.102;11.584;2023-03-23T05:59:54;5.68;;;3.22;;
38208;SDS011;24016;52.102;11.584;2023-03-23T06:02:20;4.28;;;3.05;;
38208;SDS011;24016;52.102;11.584;2023-03-23T06:04:48;5.10;;;3.60;;
38208;SDS011;24016;52.102;11.584;2023-03-23T06:07:14;6.20;;;3.75;;
38208;SDS011;24016;52.102;11.584;2023-03-23T06:09:39;6.60;;;3.47;;
38208;SDS011;24016;52.102;11.584;2023-03-23T06:12:06;7.50;;;3.72;;
38208;SDS011;24016;52.102;11.584;2023-03-23T06:14:32;7.07;;;3.80;;
38208;SDS011;24016;52.102;11.584;2023-03-23T06:16:58;6.57;;;3.47;;
38208;SDS011;24016;52.102;11.584;2023-03-23T06:19:24;6.32;;;3.40;;
38208;SDS011;24016;52.102;11.584;2023-03-23T06:21:51;7.05;;;3.38;;
38208;SDS011;24016;52.102;11.584;2023-03-23T06:24:17;9.45;;;4.30;;
38208;SDS011;24016;52.102;11.584;2023-03-23T06:26:43;7.97;;;4.30;;
38208;SDS011;24016;52.102;11.584;2023-03-23T06:29:09;9.00;;;5.82;;
38208;SDS011;24016;52.102;11.584;2023-03-23T06:31:39;4.75;;;3.58;;
38208;SDS011;24016;52.102;11.584;2023-03-23T06:34:06;5.97;;;2.90;;
38208;SDS011;24016;52.102;11.584;2023-03-23T06:36:33;6.07;;;2.58;;
38208;SDS011;24016;52.102;11.584;2023-03-23T06:38:59;4.43;;;2.70;;
38208;SDS011;24016;52.102;11.584;2023-03-23T06:41:25;5.40;;;2.83;;
38208;SDS011;24016;52.102;11.584;2023-03-23T06:43:51;3.60;;;2.70;;
38208;SDS011;24016;52.102;11.584;2023-03-23T06:46:17;8.00;;;2.50;;
38208;SDS011;24016;52.102;11.584;2023-03-23T06:48:42;3.92;;;2.42;;
38208;SDS011;24016;52.102;11.584;2023-03-23T06:51:08;3.90;;;2.20;;
38208;SDS011;24016;52.102;11.584;2023-03-23T06:53:34;3.72;;;2.13;;
38208;SDS011;24016;52.102;11.584;2023-03-23T06:56:00;4.22;;;2.35;;
38208;SDS011;24016;52.102;11.584;2023-03-23T06:58:26;3.53;;;2.00;;
38208;SDS011;24016;52.102;11.584;2023-03-23T07:00:55;3.17;;;2.20;;
38208;SDS011;24016;52.102;11.584;2023-03-23T07:03:22;2.67;;;2.03;;
38208;SDS011;24016;52.102;11.584;2023-03-23T07:05:48;4.20;;;2.40;;
38208;SDS011;24016;52.102;11.584;2023-03-23T07:08:15;3.85;;;2.13;;
38208;SDS011;24016;52.102;11.584;2023-03-23T07:10:41;2.95;;;2.00;;
38208;SDS011;24016;52.102;11.584;2023-03-23T07:13:06;4.20;;;2.33;;
38208;SDS011;24016;52.102;11.584;2023-03-23T07:15:32;2.67;;;1.70;;
38208;SDS011;24016;52.102;11.584;2023-03-23T07:17:58;2.65;;;1.75;;
38208;SDS011;24016;52.102;11.584;2023-03-23T07:20:23;2.95;;;1.73;;
38208;SDS011;24016;52.102;11.584;2023-03-23T07:22:49;2.65;;;1.80;;
38208;SDS011;24016;52.102;11.584;2023-03-23T07:25:16;3.13;;;1.80;;
38208;SDS011;24016;52.102;11.584;2023-03-23T07:27:43;7.35;;;2.00;;
38208;SDS011;24016;52.102;11.584;2023-03-23T07:30:10;2.55;;;1.70;;
38208;SDS011;24016;52.102;11.584;2023-03-23T07:32:37;3.28;;;1.67;;
38208;SDS011;24016;52.102;11.584;2023-03-23T07:35:02;5.00;;;2.00;;
38208;SDS011;24016;52.102;11.584;2023-03-23T07:37:29;3.45;;;1.95;;
38208;SDS011;24016;52.102;11.584;2023-03-23T07:39:57;2.63;;;1.52;;
38208;SDS011;24016;52.102;11.584;2023-03-23T07:42:22;3.92;;;1.73;;
38208;SDS011;24016;52.102;11.584;2023-03-23T07:44:48;3.72;;;1.75;;
38208;SDS011;24016;52.102;11.584;2023-03-23T07:47:14;4.97;;;1.85;;
38208;SDS011;24016;52.102;11.584;2023-03-23T07:49:39;1.83;;;1.23;;
38208;SDS011;24016;52.102;11.584;2023-03-23T07:52:05;2.97;;;1.30;;
38208;SDS011;24016;52.102;11.584;2023-03-23T07:54:31;2.00;;;1.30;;
38208;SDS011;24016;52.102;11.584;2023-03-23T07:56:57;2.67;;;1.42;;
38208;SDS011;24016;52.102;11.584;2023-03-23T07:59:22;3.80;;;1.50;;
38208;SDS011;24016;52.102;11.584;2023-03-23T08:01:48;2.40;;;1.20;;
38208;SDS011;24016;52.102;11.584;2023-03-23T08:04:13;2.13;;;1.08;;
38208;SDS011;24016;52.102;11.584;2023-03-23T08:06:40;1.38;;;1.13;;
38208;SDS011;24016;52.102;11.584;2023-03-23T08:09:06;4.57;;;1.50;;
38208;SDS011;24016;52.102;11.584;2023-03-23T08:11:34;3.92;;;1.38;;
38208;SDS011;24016;52.102;11.584;2023-03-23T08:14:00;2.75;;;1.48;;
38208;SDS011;24016;52.102;11.584;2023-03-23T08:16:28;4.28;;;1.70;;
38208;SDS011;24016;52.102;11.584;2023-03-23T08:18:53;2.15;;;1.38;;
38208;SDS011;24016;52.102;11.584;2023-03-23T08:21:19;5.63;;;1.45;;
38208;SDS011;24016;52.102;11.584;2023-03-23T08:23:47;4.47;;;1.40;;
38208;SDS011;24016;52.102;11.584;2023-03-23T08:26:12;2.47;;;1.50;;
38208;SDS011;24016;52.102;11.584;2023-03-23T08:28:39;1.95;;;1.40;;
38208;SDS011;24016;52.102;11.584;2023-03-23T08:31:05;1.92;;;1.20;;
38208;SDS011;24016;52.102;11.584;2023-03-23T08:33:36;3.08;;;1.38;;
38208;SDS011;24016;52.102;11.584;2023-03-23T08:36:02;2.08;;;1.38;;
38208;SDS011;24016;52.102;11.584;2023-03-23T08:38:28;2.65;;;1.40;;
38208;SDS011;24016;52.102;11.584;2023-03-23T08:40:58;4.03;;;1.80;;
38208;SDS011;24016;52.102;11.584;2023-03-23T08:43:25;1.98;;;1.33;;
38208;SDS011;24016;52.102;11.584;2023-03-23T08:45:52;2.17;;;1.30;;
38208;SDS011;24016;52.102;11.584;2023-03-23T08:48:18;3.38;;;1.38;;
38208;SDS011;24016;52.102;11.584;2023-03-23T08:50:44;2.65;;;1.50;;
38208;SDS011;24016;52.102;11.584;2023-03-23T08:53:09;2.75;;;1.70;;
38208;SDS011;24016;52.102;11.584;2023-03-23T08:55:36;2.47;;;1.45;;
38208;SDS011;24016;52.102;11.584;2023-03-23T08:58:03;4.78;;;1.55;;
38208;SDS011;24016;52.102;11.584;2023-03-23T09:00:29;3.95;;;1.40;;
38208;SDS011;24016;52.102;11.584;2023-03-23T09:02:55;2.15;;;1.40;;
38208;SDS011;24016;52.102;11.584;2023-03-23T09:05:22;2.40;;;1.15;;
38208;SDS011;24016;52.102;11.584;2023-03-23T09:07:51;3.13;;;1.40;;
38208;SDS011;24016;52.102;11.584;2023-03-23T09:10:18;1.75;;;1.20;;
38208;SDS011;24016;52.102;11.584;2023-03-23T09:12:45;2.35;;;1.25;;
38208;SDS011;24016;52.102;11.584;2023-03-23T09:15:12;4.07;;;1.40;;
38208;SDS011;24016;52.102;11.584;2023-03-23T09:17:43;2.13;;;1.17;;
38208;SDS011;24016;52.102;11.584;2023-03-23T09:20:11;2.33;;;1.40;;
38208;SDS011;24016;52.102;11.584;2023-03-23T09:22:45;2.08;;;1.30;;
38208;SDS011;24016;52.102;11.584;2023-03-23T09:25:13;4.28;;;1.85;;
38208;SDS011;24016;52.102;11.584;2023-03-23T09:27:41;1.65;;;1.30;;
38208;SDS011;24016;52.102;11.584;2023-03-23T09:30:08;2.40;;;1.70;;
38208;SDS011;24016;52.102;11.584;2023-03-23T09:32:36;3.17;;;1.30;;
38208;SDS011;24016;52.102;11.584;2023-03-23T09:35:04;2.65;;;1.40;;
38208;SDS011;24016;52.102;11.584;2023-03-23T09:37:36;2.08;;;1.40;;
38208;SDS011;24016;52.102;11.584;2023-03-23T09:40:03;2.40;;;1.50;;
38208;SDS011;24016;52.102;11.584;2023-03-23T09:54:09;3.83;;;1.40;;
38208;SDS011;24016;52.102;11.584;2023-03-23T09:56:35;3.00;;;1.63;;
38208;SDS011;24016;52.102;11.584;2023-03-23T09:59:13;3.38;;;1.30;;
38208;SDS011;24016;52.102;11.584;2023-03-23T10:01:53;1.95;;;1.33;;
38208;SDS011;24016;52.102;11.584;2023-03-23T10:04:48;2.33;;;1.45;;
38208;SDS011;24016;52.102;11.584;2023-03-23T10:07:19;2.33;;;1.13;;
38208;SDS011;24016;52.102;11.584;2023-03-23T10:09:51;4.78;;;1.30;;
38208;SDS011;24016;52.102;11.584;2023-03-23T10:15:14;3.00;;;1.30;;
38208;SDS011;24016;52.102;11.584;2023-03-23T10:17:54;2.35;;;1.40;;
38208;SDS011;24016;52.102;11.584;2023-03-23T10:20:32;1.88;;;1.17;;
38208;SDS011;24016;52.102;11.584;2023-03-23T10:23:20;3.20;;;1.33;;
38208;SDS011;24016;52.102;11.584;2023-03-23T10:28:43;3.30;;;1.38;;
38208;SDS011;24016;52.102;11.584;2023-03-23T10:31:13;3.40;;;1.45;;
38208;SDS011;24016;52.102;11.584;2023-03-23T10:33:44;2.50;;;1.35;;
38208;SDS011;24016;52.102;11.584;2023-03-23T10:38:44;3.58;;;1.40;;
38208;SDS011;24016;52.102;11.584;2023-03-23T10:41:14;3.50;;;1.40;;
38208;SDS011;24016;52.102;11.584;2023-03-23T10:43:41;2.38;;;1.13;;
38208;SDS011;24016;52.102;11.584;2023-03-23T10:46:13;2.63;;;1.38;;
38208;SDS011;24016;52.102;11.584;2023-03-23T10:48:45;2.03;;;1.30;;
38208;SDS011;24016;52.102;11.584;2023-03-23T10:51:14;3.30;;;1.33;;
38208;SDS011;24016;52.102;11.584;2023-03-23T10:53:45;2.35;;;1.42;;
38208;SDS011;24016;52.102;11.584;2023-03-23T10:58:48;3.17;;;1.60;;
38208;SDS011;24016;52.102;11.584;2023-03-23T11:01:14;3.00;;;1.10;;
38208;SDS011;24016;52.102;11.584;2023-03-23T11:03:43;3.17;;;1.40;;
38208;SDS011;24016;52.102;11.584;2023-03-23T11:06:19;1.88;;;1.20;;
38208;SDS011;24016;52.102;11.584;2023-03-23T11:08:55;2.60;;;1.60;;
38208;SDS011;24016;52.102;11.584;2023-03-23T11:17:00;3.05;;;1.23;;
38208;SDS011;24016;52.102;11.584;2023-03-23T11:19:36;3.13;;;1.40;;
38208;SDS011;24016;52.102;11.584;2023-03-23T11:22:12;3.03;;;1.45;;
38208;SDS011;24016;52.102;11.584;2023-03-23T11:24:46;3.45;;;1.60;;
38208;SDS011;24016;52.102;11.584;2023-03-23T11:27:16;3.67;;;1.50;;
38208;SDS011;24016;52.102;11.584;2023-03-23T11:29:46;4.18;;;1.60;;
38208;SDS011;24016;52.102;11.584;2023-03-23T11:32:19;3.40;;;1.63;;
38208;SDS011;24016;52.102;11.584;2023-03-23T11:34:57;3.45;;;1.48;;
38208;SDS011;24016;52.102;11.584;2023-03-23T11:37:33;6.55;;;1.60;;
38208;SDS011;24016;52.102;11.584;2023-03-23T11:42:38;2.15;;;1.17;;
38208;SDS011;24016;52.102;11.584;2023-03-23T11:45:16;4.80;;;1.50;;
38208;SDS011;24016;52.102;11.584;2023-03-23T11:48:03;3.13;;;1.38;;
38208;SDS011;24016;52.102;11.584;2023-03-23T11:50:59;4.85;;;1.70;;
38208;SDS011;24016;52.102;11.584;2023-03-23T11:56:38;5.10;;;1.85;;
38208;SDS011;24016;52.102;11.584;2023-03-23T12:01:46;3.65;;;1.48;;
38208;SDS011;24016;52.102;11.584;2023-03-23T12:04:33;3.72;;;1.40;;
38208;SDS011;24016;52.102;11.584;2023-03-23T12:10:25;6.35;;;1.50;;
38208;SDS011;24016;52.102;11.584;2023-03-23T12:16:09;3.00;;;1.30;;
38208;SDS011;24016;52.102;11.584;2023-03-23T12:19:01;3.65;;;1.70;;
38208;SDS011;24016;52.102;11.584;2023-03-23T12:21:56;4.93;;;1.67;;
38208;SDS011;24016;52.102;11.584;2023-03-23T12:24:49;3.35;;;1.48;;
38208;SDS011;24016;52.102;11.584;2023-03-23T12:32:58;3.33;;;1.30;;
38208;SDS011;24016;52.102;11.584;2023-03-23T12:35:46;2.83;;;1.40;;
38208;SDS011;24016;52.102;11.584;2023-03-23T12:39:02;3.33;;;1.20;;
38208;SDS011;24016;52.102;11.584;2023-03-23T12:44:14;4.57;;;1.30;;
38208;SDS011;24016;52.102;11.584;2023-03-23T12:46:52;2.50;;;1.20;;
38208;SDS011;24016;52.102;11.584;2023-03-23T12:51:59;3.47;;;1.40;;
38208;SDS011;24016;52.102;11.584;2023-03-23T12:54:33;6.47;;;1.42;;
38208;SDS011;24016;52.102;11.584;2023-03-23T12:57:16;3.60;;;1.35;;
38208;SDS011;24016;52.102;11.584;2023-03-23T13:02:44;2.30;;;1.23;;
38208;SDS011;24016;52.102;11.584;2023-03-23T13:07:52;2.35;;;1.25;;
38208;SDS011;24016;52.102;11.584;2023-03-23T13:10:29;2.78;;;1.23;;
38208;SDS011;24016;52.102;11.584;2023-03-23T13:13:06;2.88;;;1.20;;
38208;SDS011;24016;52.102;11.584;2023-03-23T13:15:54;3.20;;;1.35;;
38208;SDS011;24016;52.102;11.584;2023-03-23T13:21:46;3.60;;;1.50;;
38208;SDS011;24016;52.102;11.584;2023-03-23T13:24:21;3.47;;;1.17;;
38208;SDS011;24016;52.102;11.584;2023-03-23T13:26:50;4.75;;;1.52;;
38208;SDS011;24016;52.102;11.584;2023-03-23T13:29:20;4.10;;;1.52;;
38208;SDS011;24016;52.102;11.584;2023-03-23T13:31:49;3.28;;;1.20;;
38208;SDS011;24016;52.102;11.584;2023-03-23T13:34:17;3.40;;;1.55;;
38208;SDS011;24016;52.102;11.584;2023-03-23T13:36:58;2.05;;;1.20;;
38208;SDS011;24016;52.102;11.584;2023-03-23T13:39:31;5.35;;;1.75;;
38208;SDS011;24016;52.102;11.584;2023-03-23T13:49:58;3.03;;;1.40;;
38208;SDS011;24016;52.102;11.584;2023-03-23T13:57:50;4.07;;;1.90;;
38208;SDS011;24016;52.102;11.584;2023-03-23T14:03:05;4.70;;;1.70;;
38208;SDS011;24016;52.102;11.584;2023-03-23T14:08:35;2.95;;;1.30;;
38208;SDS011;24016;52.102;11.584;2023-03-23T14:11:14;4.22;;;1.40;;
38208;SDS011;24016;52.102;11.584;2023-03-23T14:14:02;3.25;;;1.48;;
38208;SDS011;24016;52.102;11.584;2023-03-23T14:19:17;4.05;;;1.27;;
38208;SDS011;24016;52.102;11.584;2023-03-23T14:21:48;4.70;;;1.60;;
38208;SDS011;24016;52.102;11.584;2023-03-23T14:24:21;4.68;;;1.70;;
38208;SDS011;24016;52.102;11.584;2023-03-23T14:29:30;2.97;;;1.30;;
38208;SDS011;24016;52.102;11.584;2023-03-23T14:31:56;4.15;;;1.70;;
38208;SDS011;24016;52.102;11.584;2023-03-23T14:34:24;4.00;;;1.50;;
38208;SDS011;24016;52.102;11.584;2023-03-23T14:36:53;5.70;;;1.50;;
38208;SDS011;24016;52.102;11.584;2023-03-23T14:41:50;3.53;;;1.35;;
38208;SDS011;24016;52.102;11.584;2023-03-23T14:44:18;3.60;;;1.77;;
38208;SDS011;24016;52.102;11.584;2023-03-23T14:46:48;3.80;;;1.70;;
38208;SDS011;24016;52.102;11.584;2023-03-23T14:49:15;4.38;;;1.30;;
38208;SDS011;24016;52.102;11.584;2023-03-23T14:51:49;4.15;;;1.50;;
38208;SDS011;24016;52.102;11.584;2023-03-23T14:54:20;4.97;;;1.67;;
38208;SDS011;24016;52.102;11.584;2023-03-23T14:56:53;2.85;;;1.42;;
38208;SDS011;24016;52.102;11.584;2023-03-23T14:59:19;4.18;;;1.20;;
38208;SDS011;24016;52.102;11.584;2023-03-23T15:01:46;2.38;;;1.15;;
38208;SDS011;24016;52.102;11.584;2023-03-23T15:04:18;2.20;;;0.95;;
38208;SDS011;24016;52.102;11.584;2023-03-23T15:09:19;6.00;;;1.20;;
38208;SDS011;24016;52.102;11.584;2023-03-23T15:11:55;3.95;;;1.30;;
38208;SDS011;24016;52.102;11.584;2023-03-23T15:14:26;3.95;;;1.10;;
38208;SDS011;24016;52.102;11.584;2023-03-23T15:16:54;3.17;;;1.10;;
38208;SDS011;24016;52.102;11.584;2023-03-23T15:19:23;1.80;;;1.08;;
38208;SDS011;24016;52.102;11.584;2023-03-23T15:21:53;2.92;;;1.00;;
38208;SDS011;24016;52.102;11.584;2023-03-23T15:27:23;2.30;;;1.10;;
38208;SDS011;24016;52.102;11.584;2023-03-23T15:30:00;1.52;;;0.90;;
38208;SDS011;24016;52.102;11.584;2023-03-23T15:32:38;3.83;;;0.90;;
38208;SDS011;24016;52.102;11.584;2023-03-23T15:35:13;1.55;;;1.02;;
38208;SDS011;24016;52.102;11.584;2023-03-23T15:37:43;2.88;;;1.20;;
38208;SDS011;24016;52.102;11.584;2023-03-23T15:40:16;2.50;;;1.25;;
38208;SDS011;24016;52.102;11.584;2023-03-23T15:42:47;2.60;;;1.00;;
38208;SDS011;24016;52.102;11.584;2023-03-23T15:45:36;3.35;;;1.15;;
38208;SDS011;24016;52.102;11.584;2023-03-23T15:48:09;2.97;;;1.20;;
38208;SDS011;24016;52.102;11.584;2023-03-23T15:50:40;2.40;;;1.20;;
38208;SDS011;24016;52.102;11.584;2023-03-23T15:53:19;2.65;;;1.08;;
38208;SDS011;24016;52.102;11.584;2023-03-23T15:55:58;1.40;;;0.85;;
38208;SDS011;24016;52.102;11.584;2023-03-23T15:58:26;1.52;;;1.10;;
38208;SDS011;24016;52.102;11.584;2023-03-23T16:00:52;1.52;;;0.85;;
38208;SDS011;24016;52.102;11.584;2023-03-23T16:03:20;1.27;;;0.80;;
38208;SDS011;24016;52.102;11.584;2023-03-23T16:05:51;1.83;;;0.82;;
38208;SDS011;24016;52.102;11.584;2023-03-23T16:08:19;4.72;;;1.30;;
38208;SDS011;24016;52.102;11.584;2023-03-23T16:10:46;3.08;;;1.42;;
38208;SDS011;24016;52.102;11.584;2023-03-23T16:13:11;4.60;;;1.73;;
38208;SDS011;24016;52.102;11.584;2023-03-23T16:15:37;4.05;;;1.65;;
38208;SDS011;24016;52.102;11.584;2023-03-23T16:18:03;5.95;;;1.67;;
38208;SDS011;24016;52.102;11.584;2023-03-23T16:20:29;5.03;;;1.58;;
38208;SDS011;24016;52.102;11.584;2023-03-23T16:22:57;4.10;;;1.92;;
38208;SDS011;24016;52.102;11.584;2023-03-23T16:25:23;3.72;;;1.63;;
38208;SDS011;24016;52.102;11.584;2023-03-23T16:27:49;5.43;;;1.98;;
38208;SDS011;24016;52.102;11.584;2023-03-23T16:30:16;4.15;;;1.80;;
38208;SDS011;24016;52.102;11.584;2023-03-23T16:32:44;5.80;;;2.20;;
38208;SDS011;24016;52.102;11.584;2023-03-23T16:35:11;6.97;;;2.50;;
38208;SDS011;24016;52.102;11.584;2023-03-23T16:37:37;5.90;;;2.22;;
38208;SDS011;24016;52.102;11.584;2023-03-23T16:40:04;5.82;;;2.30;;
38208;SDS011;24016;52.102;11.584;2023-03-23T16:42:31;7.65;;;2.30;;
38208;SDS011;24016;52.102;11.584;2023-03-23T16:44:56;5.32;;;2.20;;
38208;SDS011;24016;52.102;11.584;2023-03-23T16:47:24;5.45;;;2.60;;